Time;durP1;ratioP1;P1;durP2;ratioP2;P2;SDS_P1;SDS_P2;PMS_P1;PMS_P2;Temp;Humidity;BMP_temperature;BMP_pressure;BME280_temperature;BME280_humidity;BME280_pressure;Samples;Min_cycle;Max_cycle;Signal;HPM_P1;HPM_P2
2021/11/30 00:00:08;;;;;;;2.20;0.22;;;5.10;99.90;;;;;;4995872;28;20105;-76
2021/11/30 00:02:34;;;;;;;3.53;0.00;;;5.10;99.90;;;;;;4995560;28;20138;-76
2021/11/30 00:05:00;;;;;;;1.30;0.22;;;5.10;99.90;;;;;;4995070;28;20074;-76
2021/11/30 00:07:26;;;;;;;3.70;0.00;;;5.10;99.90;;;;;;4995286;28;20026;-76
2021/11/30 00:12:20;;;;;;;1.33;0.10;;;5.10;99.90;;;;;;4995534;28;20026;-76
2021/11/30 00:14:49;;;;;;;4.38;0.00;;;5.10;99.90;;;;;;4977407;28;20365;-76
2021/11/30 00:17:15;;;;;;;1.55;0.00;;;5.20;99.90;;;;;;4977119;28;20028;-76
2021/11/30 00:19:42;;;;;;;1.67;0.10;;;5.10;99.90;;;;;;4994671;28;20035;-76
2021/11/30 00:22:11;;;;;;;4.93;1.05;;;5.10;99.90;;;;;;4994696;28;20036;-76
2021/11/30 00:24:37;;;;;;;4.67;0.47;;;5.10;99.90;;;;;;4977563;28;20022;-76
2021/11/30 00:27:03;;;;;;;3.08;0.13;;;5.10;99.90;;;;;;4994796;28;20288;-76
2021/11/30 00:29:29;;;;;;;3.42;0.00;;;5.10;99.90;;;;;;4995058;28;20026;-76
2021/11/30 00:31:55;;;;;;;3.08;0.00;;;5.20;99.90;;;;;;4995064;28;20471;-76
2021/11/30 00:34:21;;;;;;;4.78;0.20;;;5.10;99.90;;;;;;4994807;28;20037;-76
2021/11/30 00:36:47;;;;;;;2.53;0.22;;;5.10;99.90;;;;;;4994403;28;20030;-76
2021/11/30 00:39:13;;;;;;;3.10;0.88;;;5.20;99.90;;;;;;4994720;28;20072;-76
2021/11/30 00:41:44;;;;;;;4.15;0.28;;;5.10;99.90;;;;;;4995288;28;20029;-76
2021/11/30 00:44:10;;;;;;;8.18;1.45;;;5.10;99.90;;;;;;4977256;28;20028;-76
2021/11/30 00:46:39;;;;;;;7.30;0.47;;;5.10;99.90;;;;;;4977380;28;20466;-76
2021/11/30 00:49:06;;;;;;;1.02;0.00;;;5.10;99.90;;;;;;4995138;28;20022;-76
2021/11/30 00:51:34;;;;;;;3.70;0.35;;;5.00;99.90;;;;;;4977368;28;20027;-76
2021/11/30 00:54:00;;;;;;;6.15;0.22;;;5.00;99.90;;;;;;4994673;28;20408;-76
2021/11/30 00:56:26;;;;;;;6.07;0.10;;;5.00;99.90;;;;;;4994570;28;20051;-76
2021/11/30 00:58:53;;;;;;;3.22;0.00;;;5.00;99.90;;;;;;4977411;28;20037;-76
2021/11/30 01:01:20;;;;;;;6.65;0.20;;;4.90;99.90;;;;;;4994640;28;20049;-76
2021/11/30 01:03:45;;;;;;;2.50;0.00;;;4.80;99.90;;;;;;4994577;28;20089;-76
2021/11/30 01:06:11;;;;;;;1.13;0.00;;;4.80;99.90;;;;;;4977979;28;20030;-75
2021/11/30 01:08:37;;;;;;;3.65;0.00;;;4.70;99.90;;;;;;4981295;28;20471;-76
2021/11/30 01:11:03;;;;;;;0.68;0.00;;;4.70;99.90;;;;;;4981392;28;20022;-76
2021/11/30 01:13:33;;;;;;;4.47;0.45;;;4.70;99.90;;;;;;4980810;28;20383;-77
2021/11/30 01:15:59;;;;;;;1.77;0.00;;;4.70;99.90;;;;;;4999073;28;20022;-76
2021/11/30 01:18:25;;;;;;;3.13;0.00;;;4.70;99.90;;;;;;4997583;28;20039;-77
2021/11/30 01:20:52;;;;;;;1.77;0.00;;;4.70;99.90;;;;;;4998606;28;20037;-76
2021/11/30 01:23:18;;;;;;;7.03;0.45;;;4.60;99.90;;;;;;4981002;28;20097;-76
2021/11/30 01:25:43;;;;;;;3.28;0.00;;;4.60;99.90;;;;;;4998302;28;20037;-76
2021/11/30 01:28:09;;;;;;;0.80;0.00;;;4.60;99.90;;;;;;4998941;28;20023;-75
2021/11/30 01:30:34;;;;;;;2.88;0.10;;;4.60;99.90;;;;;;4998102;28;20018;-75
2021/11/30 01:33:00;;;;;;;5.82;0.15;;;4.60;99.90;;;;;;4998453;28;20030;-75
2021/11/30 01:35:26;;;;;;;2.88;0.08;;;4.60;99.90;;;;;;4980868;28;20161;-75
2021/11/30 01:37:53;;;;;;;4.85;0.28;;;4.50;99.90;;;;;;4980845;28;20018;-75
2021/11/30 01:40:22;;;;;;;2.38;0.20;;;4.40;99.90;;;;;;4998061;28;20034;-75
2021/11/30 01:42:50;;;;;;;2.78;0.25;;;4.40;99.90;;;;;;4998084;28;20385;-75
2021/11/30 01:50:34;;;;;;;3.10;1.20;;;4.20;99.90;;;;;;4998463;28;20467;-75
2021/11/30 01:52:59;;;;;;;4.80;1.02;;;4.20;99.90;;;;;;4998013;28;20438;-75
2021/11/30 01:55:27;;;;;;;10.85;1.13;;;4.20;99.90;;;;;;4998274;28;20006;-75
2021/11/30 01:57:53;;;;;;;3.78;1.25;;;4.20;99.90;;;;;;4980576;28;20430;-75
2021/11/30 02:00:22;;;;;;;5.72;1.27;;;4.20;99.90;;;;;;4979549;28;20038;-76
2021/11/30 02:02:49;;;;;;;2.47;1.02;;;4.30;99.90;;;;;;4997244;28;20030;-76
2021/11/30 02:05:15;;;;;;;7.35;1.30;;;4.20;99.90;;;;;;4997537;28;20085;-77
2021/11/30 02:07:41;;;;;;;4.40;1.20;;;4.20;99.90;;;;;;4997560;28;20041;-77
2021/11/30 02:10:09;;;;;;;5.40;2.20;;;4.20;99.90;;;;;;4997668;28;20037;-77
2021/11/30 02:12:40;;;;;;;5.28;1.35;;;4.20;99.90;;;;;;4997441;28;20102;-77
2021/11/30 02:15:08;;;;;;;3.13;1.40;;;4.20;99.90;;;;;;4979713;28;20132;-77
2021/11/30 02:17:35;;;;;;;5.10;1.27;;;4.30;99.90;;;;;;4979411;28;20054;-77
2021/11/30 02:20:01;;;;;;;3.13;1.45;;;4.30;99.90;;;;;;4979913;28;20077;-77
2021/11/30 02:22:28;;;;;;;3.50;1.83;;;4.30;99.90;;;;;;4979902;28;20026;-77
2021/11/30 02:24:54;;;;;;;3.20;1.45;;;4.20;99.90;;;;;;4979581;28;20022;-77
2021/11/30 02:27:21;;;;;;;3.90;1.75;;;4.30;99.90;;;;;;4996874;28;20034;-77
2021/11/30 02:29:47;;;;;;;2.17;1.00;;;4.30;99.90;;;;;;4979647;28;20097;-77
2021/11/30 02:32:13;;;;;;;3.05;1.17;;;4.40;99.90;;;;;;4979805;28;20069;-77
2021/11/30 02:34:39;;;;;;;2.30;1.30;;;4.50;99.90;;;;;;4996920;28;20050;-77
2021/11/30 02:37:06;;;;;;;3.70;1.02;;;4.50;99.90;;;;;;4979801;28;20054;-76
2021/11/30 02:39:34;;;;;;;3.40;1.20;;;4.50;99.90;;;;;;4979503;28;20025;-77
2021/11/30 02:42:02;;;;;;;1.92;0.32;;;4.50;99.90;;;;;;4996324;28;20368;-77
2021/11/30 02:44:27;;;;;;;1.23;0.80;;;4.60;99.90;;;;;;4996664;28;20022;-76
2021/11/30 02:46:56;;;;;;;4.00;0.68;;;4.70;99.90;;;;;;4996780;28;20775;-76
2021/11/30 02:49:29;;;;;;;1.40;0.55;;;4.70;99.90;;;;;;4996828;28;20097;-76
2021/11/30 02:52:05;;;;;;;1.30;0.77;;;4.70;99.90;;;;;;4979324;28;20035;-76
2021/11/30 02:54:31;;;;;;;0.88;0.30;;;4.70;99.90;;;;;;4978284;28;20034;-75
2021/11/30 02:56:59;;;;;;;2.38;0.55;;;4.80;99.90;;;;;;4977105;28;20027;-77
2021/11/30 02:59:28;;;;;;;1.60;0.43;;;4.80;99.90;;;;;;4977734;28;20027;-75
2021/11/30 03:01:55;;;;;;;;;;;4.80;99.90;;;;;;4961187;28;20022;-75
2021/11/30 03:04:21;;;;;;;1.73;0.30;;;4.90;99.90;;;;;;4996850;28;20386;-75
2021/11/30 03:06:47;;;;;;;1.05;0.40;;;4.90;99.90;;;;;;4997184;28;20090;-75
2021/11/30 03:09:13;;;;;;;1.10;0.40;;;5.00;99.90;;;;;;4996915;28;20025;-75
2021/11/30 03:11:39;;;;;;;1.10;0.43;;;5.00;99.90;;;;;;4997439;28;20098;-75
2021/11/30 03:14:05;;;;;;;1.30;0.55;;;5.00;99.90;;;;;;4979142;28;20018;-75
2021/11/30 03:16:31;;;;;;;1.73;0.32;;;5.00;99.90;;;;;;4979423;28;20026;-76
2021/11/30 03:18:58;;;;;;;0.80;0.25;;;5.10;99.90;;;;;;4979163;28;20027;-76
2021/11/30 03:21:24;;;;;;;2.03;0.63;;;5.10;99.90;;;;;;4996543;28;20109;-76
2021/11/30 03:23:49;;;;;;;1.27;0.35;;;5.20;99.90;;;;;;4978000;28;20057;-76
2021/11/30 03:26:15;;;;;;;1.00;0.40;;;5.20;99.90;;;;;;4996104;28;20037;-75
2021/11/30 03:28:43;;;;;;;0.73;0.47;;;5.20;99.90;;;;;;4979251;28;20113;-76
2021/11/30 03:31:32;;;;;;;1.50;0.35;;;5.30;99.90;;;;;;4996151;28;20026;-77
2021/11/30 03:33:59;;;;;;;1.05;0.38;;;5.30;99.90;;;;;;4993891;28;20479;-76
2021/11/30 03:36:25;;;;;;;1.27;0.52;;;5.30;99.90;;;;;;4978174;28;20014;-76
2021/11/30 03:38:51;;;;;;;0.82;0.50;;;5.30;99.90;;;;;;4996093;28;20085;-76
2021/11/30 03:41:17;;;;;;;1.10;0.60;;;5.40;99.90;;;;;;4978329;28;20038;-77
2021/11/30 03:43:42;;;;;;;0.98;0.60;;;5.40;99.90;;;;;;4978556;28;20036;-77
2021/11/30 03:46:08;;;;;;;1.35;0.77;;;5.40;99.90;;;;;;4977974;28;20022;-77
2021/11/30 03:48:34;;;;;;;1.70;0.80;;;5.40;99.90;;;;;;4995688;28;20077;-77
2021/11/30 03:50:59;;;;;;;1.35;0.52;;;5.50;99.90;;;;;;4977745;28;20041;-77
2021/11/30 03:53:25;;;;;;;0.65;0.52;;;5.50;99.90;;;;;;4995896;28;20026;-76
2021/11/30 03:55:51;;;;;;;2.58;0.68;;;5.60;99.90;;;;;;4978084;28;20042;-77
2021/11/30 03:58:16;;;;;;;1.85;0.73;;;5.60;99.90;;;;;;4995889;28;20022;-76
2021/11/30 04:00:43;;;;;;;0.85;0.65;;;5.70;99.90;;;;;;4994935;28;20121;-77
2021/11/30 04:03:09;;;;;;;0.70;0.50;;;5.70;99.90;;;;;;4977732;28;20398;-77
2021/11/30 04:05:34;;;;;;;1.08;0.85;;;5.70;99.90;;;;;;4994716;28;20030;-78
2021/11/30 04:08:00;;;;;;;1.77;0.93;;;5.80;99.90;;;;;;4995461;28;20386;-77
2021/11/30 04:10:26;;;;;;;2.08;1.25;;;5.90;99.90;;;;;;4977926;28;20053;-77
2021/11/30 04:12:52;;;;;;;2.13;1.20;;;5.90;99.90;;;;;;4995544;28;20014;-76
2021/11/30 04:15:18;;;;;;;2.78;1.17;;;6.00;99.90;;;;;;4994702;28;20034;-76
2021/11/30 04:17:44;;;;;;;3.53;0.63;;;6.20;99.90;;;;;;4977273;28;20022;-77
2021/11/30 04:20:11;;;;;;;2.90;0.35;;;6.40;99.90;;;;;;4995001;28;20026;-77
2021/11/30 04:22:37;;;;;;;4.57;0.70;;;6.70;99.90;;;;;;4978073;28;20472;-76
2021/11/30 04:25:04;;;;;;;1.20;0.40;;;7.00;99.90;;;;;;4994671;28;20022;-77
2021/11/30 04:27:31;;;;;;;2.55;0.70;;;7.30;99.90;;;;;;4977633;28;20029;-76
2021/11/30 04:29:57;;;;;;;5.10;0.57;;;7.40;99.90;;;;;;4995195;28;20022;-77
2021/11/30 04:32:23;;;;;;;4.63;0.80;;;7.50;99.90;;;;;;4994853;28;20030;-78
2021/11/30 04:34:48;;;;;;;5.47;1.67;;;7.60;99.90;;;;;;4976968;28;20113;-77
2021/11/30 04:37:14;;;;;;;3.78;1.10;;;7.60;99.90;;;;;;4994525;28;20061;-78
2021/11/30 04:39:39;;;;;;;5.28;1.63;;;7.70;99.90;;;;;;4994595;28;20033;-78
2021/11/30 04:42:05;;;;;;;5.47;1.25;;;7.70;99.90;;;;;;4976451;28;20026;-77
2021/11/30 04:44:33;;;;;;;7.50;1.73;;;7.80;99.90;;;;;;4994089;28;20030;-77
2021/11/30 04:47:03;;;;;;;8.68;1.52;;;7.80;99.90;;;;;;4976994;28;20027;-77
2021/11/30 04:51:59;;;;;;;5.78;1.65;;;7.90;99.90;;;;;;4994647;28;20034;-77
2021/11/30 04:54:25;;;;;;;6.72;1.65;;;8.00;99.90;;;;;;4976945;28;20058;-77
2021/11/30 04:56:51;;;;;;;2.35;1.40;;;8.00;99.90;;;;;;4994296;28;20054;-77
2021/11/30 04:59:19;;;;;;;6.47;1.10;;;8.10;99.90;;;;;;4976995;28;20029;-77
2021/11/30 05:01:45;;;;;;;5.72;1.30;;;8.10;99.90;;;;;;4994542;28;20069;-77
2021/11/30 05:04:10;;;;;;;6.53;1.92;;;8.20;99.90;;;;;;4994415;28;20391;-77
2021/11/30 05:06:37;;;;;;;6.85;1.15;;;8.20;99.90;;;;;;4994447;28;20026;-76
2021/11/30 05:09:04;;;;;;;6.05;1.15;;;8.20;99.90;;;;;;4994158;28;20435;-75
2021/11/30 05:11:30;;;;;;;6.72;1.77;;;8.20;99.90;;;;;;4976332;28;20083;-76
2021/11/30 05:13:56;;;;;;;5.45;0.85;;;8.20;99.90;;;;;;4993991;28;20030;-75
2021/11/30 05:16:22;;;;;;;6.03;0.85;;;8.30;99.90;;;;;;4993740;28;20049;-76
2021/11/30 05:18:47;;;;;;;2.97;0.50;;;8.30;99.90;;;;;;4976370;28;20397;-76
2021/11/30 05:21:13;;;;;;;2.95;0.60;;;8.30;99.90;;;;;;4976474;28;20438;-76
2021/11/30 05:23:41;;;;;;;2.80;0.40;;;8.30;99.90;;;;;;4976038;28;20030;-77
2021/11/30 05:26:08;;;;;;;8.48;0.88;;;8.30;99.90;;;;;;4993699;28;20037;-75
2021/11/30 05:28:35;;;;;;;9.70;0.90;;;8.30;99.90;;;;;;4976642;28;20018;-77
2021/11/30 05:31:02;;;;;;;3.97;0.90;;;8.40;99.90;;;;;;4994737;28;20037;-76
2021/11/30 05:33:28;;;;;;;7.60;0.68;;;8.40;99.90;;;;;;4994139;28;20053;-76
2021/11/30 05:35:54;;;;;;;2.88;0.50;;;8.40;99.90;;;;;;4994050;28;20030;-76
2021/11/30 05:38:20;;;;;;;2.10;0.47;;;8.40;99.90;;;;;;4976313;28;20026;-77
2021/11/30 05:40:47;;;;;;;7.32;1.65;;;8.50;99.90;;;;;;4975493;28;20023;-76
2021/11/30 05:43:12;;;;;;;4.28;0.65;;;8.50;99.90;;;;;;4992551;28;20513;-77
2021/11/30 05:45:38;;;;;;;4.22;1.38;;;8.50;99.90;;;;;;4975814;28;20113;-77
2021/11/30 05:48:04;;;;;;;15.75;1.75;;;8.50;99.90;;;;;;4993141;28;20030;-77
2021/11/30 05:50:30;;;;;;;6.35;1.15;;;8.50;99.90;;;;;;4992893;28;20033;-76
2021/11/30 05:52:56;;;;;;;4.90;0.63;;;8.50;99.90;;;;;;4977608;28;20026;-76
2021/11/30 05:55:21;;;;;;;3.35;0.93;;;8.60;99.90;;;;;;4997041;28;20468;-76
2021/11/30 05:57:47;;;;;;;4.22;1.30;;;8.60;99.90;;;;;;4989688;28;20033;-77
2021/11/30 06:00:16;;;;;;;4.35;0.60;;;8.60;99.90;;;;;;4996770;28;20022;-76
2021/11/30 06:02:55;;;;;;;10.57;1.58;;;8.60;99.90;;;;;;4996964;28;20023;-76
2021/11/30 06:05:21;;;;;;;5.75;0.98;;;8.60;99.90;;;;;;4996802;28;20034;-76
2021/11/30 06:07:47;;;;;;;6.45;0.90;;;8.70;99.90;;;;;;4996808;28;20109;-76
2021/11/30 06:10:12;;;;;;;5.95;0.75;;;8.60;99.90;;;;;;4979380;28;20538;-77
2021/11/30 06:12:38;;;;;;;5.25;1.02;;;8.70;99.90;;;;;;4997281;28;20022;-77
2021/11/30 06:15:04;;;;;;;1.88;0.40;;;8.70;99.90;;;;;;4996432;28;20112;-77
2021/11/30 06:17:29;;;;;;;5.07;1.08;;;8.60;99.90;;;;;;4996520;28;20048;-77
2021/11/30 06:19:55;;;;;;;8.93;1.05;;;8.70;99.90;;;;;;4996637;28;20097;-75
2021/11/30 06:22:20;;;;;;;5.40;0.95;;;8.60;99.90;;;;;;4996717;28;20058;-77
2021/11/30 06:24:46;;;;;;;6.82;2.47;;;8.70;99.90;;;;;;4996379;28;20040;-77
2021/11/30 06:27:11;;;;;;;5.22;0.77;;;8.70;99.90;;;;;;4996492;28;20071;-77
2021/11/30 06:29:37;;;;;;;4.35;0.70;;;8.70;99.90;;;;;;4979392;28;20023;-76
2021/11/30 06:32:03;;;;;;;7.57;1.10;;;8.80;99.90;;;;;;4979153;28;20077;-76
2021/11/30 06:34:29;;;;;;;14.30;2.30;;;8.80;99.90;;;;;;4996522;28;20542;-76
2021/11/30 06:36:54;;;;;;;9.23;1.92;;;8.70;99.90;;;;;;4997009;28;20531;-76
2021/11/30 06:39:20;;;;;;;8.60;1.17;;;8.80;99.90;;;;;;4997640;28;20060;-76
2021/11/30 06:41:45;;;;;;;8.73;1.40;;;8.70;99.90;;;;;;4996293;28;20026;-75
2021/11/30 06:44:11;;;;;;;7.88;1.98;;;8.80;99.90;;;;;;4979198;28;20038;-75
2021/11/30 06:46:36;;;;;;;7.85;1.05;;;8.80;99.90;;;;;;4978446;28;20026;-77
2021/11/30 06:49:02;;;;;;;6.30;1.08;;;8.80;99.90;;;;;;4996803;28;20052;-77
2021/11/30 06:51:28;;;;;;;12.70;1.15;;;8.80;99.90;;;;;;4979030;28;20030;-76
2021/11/30 06:53:53;;;;;;;11.75;2.00;;;8.90;99.90;;;;;;4996510;28;20382;-76
2021/11/30 06:56:19;;;;;;;8.90;1.83;;;8.90;99.90;;;;;;4978753;28;20037;-75
2021/11/30 06:58:44;;;;;;;7.40;0.70;;;8.90;99.90;;;;;;4996276;28;20049;-77
2021/11/30 07:01:12;;;;;;;7.80;1.45;;;8.90;99.90;;;;;;4996328;28;20092;-78
2021/11/30 07:03:38;;;;;;;6.85;0.85;;;8.90;99.90;;;;;;4996246;28;20054;-76
2021/11/30 07:06:15;;;;;;;8.43;0.60;;;8.90;99.90;;;;;;4997629;28;20065;-77
2021/11/30 07:11:52;;;;;;;20.05;2.15;;;8.90;99.90;;;;;;4998097;28;20490;-77
2021/11/30 07:14:18;;;;;;;5.93;0.45;;;9.00;99.90;;;;;;4998144;28;20046;-76
2021/11/30 07:16:45;;;;;;;2.42;0.80;;;8.90;99.90;;;;;;4979878;28;20029;-77
2021/11/30 07:19:11;;;;;;;3.50;0.70;;;9.00;99.90;;;;;;4978634;28;20026;-77
2021/11/30 07:21:36;;;;;;;3.90;0.47;;;9.00;99.90;;;;;;4996317;28;20423;-77
2021/11/30 07:24:02;;;;;;;8.75;0.65;;;9.00;99.90;;;;;;4995983;28;20437;-77
2021/11/30 07:26:28;;;;;;;3.78;0.68;;;9.00;99.90;;;;;;4978197;28;20042;-77
2021/11/30 07:28:54;;;;;;;9.73;0.35;;;9.00;99.90;;;;;;4995973;28;20105;-77
2021/11/30 07:31:19;;;;;;;6.60;0.88;;;9.10;99.90;;;;;;4994719;28;20026;-77
2021/11/30 07:33:47;;;;;;;7.53;1.17;;;9.10;99.90;;;;;;4994887;28;20034;-77
2021/11/30 07:36:15;;;;;;;6.18;0.40;;;9.10;99.90;;;;;;4995439;28;20460;-77
2021/11/30 07:38:43;;;;;;;4.55;0.32;;;9.10;99.90;;;;;;4992985;28;20098;-77
2021/11/30 07:41:10;;;;;;;5.75;0.30;;;9.10;99.90;;;;;;4995536;28;20054;-77
2021/11/30 07:43:36;;;;;;;6.03;0.50;;;9.10;99.90;;;;;;4995540;28;20073;-77
2021/11/30 07:46:02;;;;;;;8.82;1.02;;;9.10;99.90;;;;;;4995566;28;20041;-77
2021/11/30 07:48:28;;;;;;;6.07;0.77;;;9.10;99.90;;;;;;4995378;28;20398;-77
2021/11/30 07:50:55;;;;;;;5.13;0.30;;;9.10;99.90;;;;;;4974558;28;20472;-76
2021/11/30 07:53:21;;;;;;;4.70;0.20;;;9.20;99.90;;;;;;4976068;28;20125;-77
2021/11/30 07:55:47;;;;;;;5.38;0.17;;;9.20;99.90;;;;;;4977136;28;20058;-77
2021/11/30 07:58:13;;;;;;;1.90;0.30;;;9.20;99.90;;;;;;4994700;28;20076;-76
2021/11/30 08:00:38;;;;;;;5.63;0.30;;;9.20;99.90;;;;;;4994492;28;20026;-76
2021/11/30 08:03:04;;;;;;;3.88;0.25;;;9.20;99.90;;;;;;4994809;28;20053;-76
2021/11/30 08:05:30;;;;;;;0.68;0.20;;;9.30;99.90;;;;;;4976873;28;20026;-76
2021/11/30 08:07:55;;;;;;;2.13;0.15;;;9.20;99.90;;;;;;4994691;28;20019;-77
2021/11/30 08:10:24;;;;;;;0.73;0.10;;;9.30;99.90;;;;;;4994878;28;20431;-77
2021/11/30 08:12:50;;;;;;;;;;;9.30;99.90;;;;;;4995082;28;20045;-78
2021/11/30 08:15:16;;;;;;;2.70;0.73;;;9.30;99.90;;;;;;4994292;28;19913;-76
2021/11/30 08:17:42;;;;;;;2.38;0.13;;;9.30;99.90;;;;;;4977077;28;20022;-76
2021/11/30 08:20:08;;;;;;;5.85;1.13;;;9.30;99.90;;;;;;4994474;28;20032;-76
2021/11/30 08:22:36;;;;;;;1.75;0.47;;;9.30;99.90;;;;;;4994576;28;20023;-76
2021/11/30 08:25:02;;;;;;;2.03;0.35;;;9.30;99.90;;;;;;4994744;28;20026;-76
2021/11/30 08:27:28;;;;;;;7.03;0.13;;;9.30;99.90;;;;;;4976858;28;20026;-76
2021/11/30 08:29:53;;;;;;;2.90;0.17;;;9.30;99.90;;;;;;4994796;28;20360;-76
2021/11/30 08:32:22;;;;;;;2.78;0.03;;;9.30;99.90;;;;;;4977236;28;20081;-77
2021/11/30 08:34:52;;;;;;;3.67;0.08;;;9.30;99.90;;;;;;4977065;28;20018;-78
2021/11/30 08:37:19;;;;;;;2.95;0.17;;;9.40;99.90;;;;;;4994159;28;20057;-77
2021/11/30 08:39:48;;;;;;;4.57;0.05;;;9.40;99.90;;;;;;4975448;28;20037;-74
2021/11/30 08:42:14;;;;;;;2.83;0.10;;;9.40;99.90;;;;;;4991996;28;20427;-74
2021/11/30 08:44:39;;;;;;;1.60;0.05;;;9.40;99.90;;;;;;4995276;28;20125;-74
2021/11/30 08:47:07;;;;;;;1.38;0.00;;;9.40;99.90;;;;;;4977943;28;20562;-74
2021/11/30 08:49:33;;;;;;;1.35;0.08;;;9.50;99.90;;;;;;4995634;28;20018;-80
2021/11/30 08:52:00;;;;;;;2.38;0.20;;;9.40;99.90;;;;;;4976804;28;20034;-75
2021/11/30 08:54:28;;;;;;;0.50;0.10;;;9.40;99.90;;;;;;4977404;28;20494;-76
2021/11/30 08:56:56;;;;;;;;;;;9.50;99.90;;;;;;4994392;28;20050;-76
2021/11/30 08:59:22;;;;;;;3.60;0.15;;;9.50;99.90;;;;;;4994808;28;19910;-76
2021/11/30 09:01:47;;;;;;;2.33;0.00;;;9.50;99.90;;;;;;4977318;28;20019;-76
2021/11/30 09:04:13;;;;;;;4.47;0.10;;;9.60;99.90;;;;;;4977330;28;20022;-76
2021/11/30 09:06:39;;;;;;;5.15;0.03;;;9.50;99.90;;;;;;4993500;28;20053;-76
2021/11/30 09:09:07;;;;;;;0.95;0.00;;;9.60;99.90;;;;;;4976945;28;20022;-75
2021/11/30 09:11:36;;;;;;;3.20;0.57;;;9.60;99.90;;;;;;4977258;28;20023;-76
2021/11/30 09:14:04;;;;;;;3.03;0.03;;;9.60;99.90;;;;;;4994333;28;20023;-75
2021/11/30 09:16:30;;;;;;;6.03;0.10;;;9.70;99.90;;;;;;4994017;28;20026;-75
2021/11/30 09:18:56;;;;;;;4.00;0.13;;;9.70;99.90;;;;;;4994470;28;20480;-76
2021/11/30 09:21:22;;;;;;;5.05;0.10;;;9.70;99.90;;;;;;4994091;28;20023;-75
2021/11/30 09:23:47;;;;;;;4.15;0.20;;;9.70;99.90;;;;;;4976817;28;20372;-75
2021/11/30 09:26:14;;;;;;;1.50;0.40;;;9.70;99.90;;;;;;4993992;28;20030;-76
2021/11/30 09:28:40;;;;;;;3.83;0.00;;;9.70;99.90;;;;;;4997110;28;20030;-76
2021/11/30 09:31:07;;;;;;;3.33;0.30;;;9.70;99.90;;;;;;4998281;28;20030;-76
2021/11/30 09:33:33;;;;;;;4.80;0.32;;;9.70;99.90;;;;;;4998299;28;20026;-77
2021/11/30 09:35:58;;;;;;;7.80;0.63;;;9.70;99.90;;;;;;4980967;28;20117;-76
2021/11/30 09:38:24;;;;;;;2.72;0.20;;;9.80;99.90;;;;;;4998088;28;20438;-76
2021/11/30 09:40:51;;;;;;;4.88;0.30;;;9.70;99.90;;;;;;4998257;28;20073;-75
2021/11/30 09:43:18;;;;;;;3.17;0.32;;;9.80;99.90;;;;;;4998026;28;20054;-75
2021/11/30 09:45:44;;;;;;;3.78;0.55;;;9.80;99.90;;;;;;4997805;28;20073;-76
2021/11/30 09:48:11;;;;;;;10.00;0.70;;;9.80;99.90;;;;;;4980442;28;20054;-75
2021/11/30 09:50:39;;;;;;;4.95;1.02;;;9.80;99.90;;;;;;4997600;28;20022;-75
2021/11/30 09:53:06;;;;;;;5.78;0.30;;;9.90;99.90;;;;;;4980642;28;20034;-76
2021/11/30 09:55:32;;;;;;;6.40;1.02;;;9.90;99.90;;;;;;4980643;28;20030;-76
2021/11/30 09:57:58;;;;;;;5.43;0.75;;;9.90;99.90;;;;;;4997862;28;20045;-76
2021/11/30 10:00:24;;;;;;;4.55;0.28;;;9.90;99.90;;;;;;4997704;28;20018;-75
2021/11/30 10:02:51;;;;;;;1.85;0.10;;;9.90;99.90;;;;;;4997926;28;20042;-76
2021/11/30 10:05:17;;;;;;;1.65;0.45;;;9.90;99.90;;;;;;4980605;28;20033;-76
2021/11/30 10:07:51;;;;;;;1.35;0.00;;;9.80;99.90;;;;;;4979900;28;20113;-76
2021/11/30 10:10:36;;;;;;;1.33;0.10;;;9.70;99.90;;;;;;4980554;28;20018;-76
2021/11/30 10:13:04;;;;;;;1.40;0.13;;;9.60;99.90;;;;;;4980294;28;20112;-76
2021/11/30 10:15:33;;;;;;;1.83;0.00;;;9.50;99.90;;;;;;4997891;28;20464;-76
2021/11/30 10:18:33;;;;;;;0.85;0.17;;;9.50;99.90;;;;;;4980587;28;20022;-74
2021/11/30 10:21:20;;;;;;;2.15;0.00;;;9.40;99.90;;;;;;4997958;28;20026;-76
2021/11/30 10:23:56;;;;;;;2.05;0.00;;;9.40;99.90;;;;;;4979905;28;20038;-75
2021/11/30 10:26:25;;;;;;;0.00;0.00;;;9.40;99.90;;;;;;4997479;28;20550;-75
2021/11/30 10:28:53;;;;;;;0.03;0.00;;;9.30;99.90;;;;;;4979442;28;20513;-74
2021/11/30 10:31:23;;;;;;;0.47;0.00;;;9.30;99.90;;;;;;4995397;28;20471;-74
2021/11/30 10:33:49;;;;;;;1.55;0.00;;;9.20;99.90;;;;;;4995414;28;20018;-74
2021/11/30 10:36:14;;;;;;;0.05;0.00;;;9.20;99.90;;;;;;4979175;28;20057;-74
2021/11/30 10:38:41;;;;;;;9.07;1.05;;;9.20;99.90;;;;;;4978173;28;20026;-74
2021/11/30 10:41:18;;;;;;;1.10;0.00;;;9.20;99.90;;;;;;4996940;28;20109;-76
2021/11/30 10:43:58;;;;;;;2.47;0.00;;;9.20;99.90;;;;;;4996489;28;20076;-76
2021/11/30 10:46:33;;;;;;;0.00;0.00;;;9.20;99.90;;;;;;4996638;28;20026;-76
2021/11/30 10:48:59;;;;;;;1.17;0.00;;;9.20;99.90;;;;;;4996913;28;20029;-73
2021/11/30 10:51:27;;;;;;;0.00;0.00;;;9.20;99.90;;;;;;4996552;28;20031;-76
2021/11/30 10:53:58;;;;;;;0.00;0.00;;;9.20;99.90;;;;;;4978291;28;20018;-76
2021/11/30 10:56:24;;;;;;;0.82;0.00;;;9.20;99.90;;;;;;4996223;28;20030;-76
2021/11/30 10:58:53;;;;;;;1.92;0.00;;;9.10;99.90;;;;;;4978556;28;20518;-76
2021/11/30 11:01:21;;;;;;;2.17;0.00;;;9.10;99.90;;;;;;4995496;28;20026;-76
2021/11/30 11:04:12;;;;;;;1.35;0.00;;;9.10;99.90;;;;;;4978090;28;20018;-76
2021/11/30 11:06:38;;;;;;;0.20;0.00;;;9.10;99.90;;;;;;4995039;28;20027;-76
2021/11/30 11:09:08;;;;;;;0.82;0.00;;;9.10;99.90;;;;;;4995814;28;20033;-76
2021/11/30 11:11:36;;;;;;;1.45;0.00;;;9.10;99.90;;;;;;4993628;28;20507;-74
2021/11/30 11:14:20;;;;;;;4.28;0.75;;;9.10;99.90;;;;;;4995664;28;20427;-74
2021/11/30 11:16:52;;;;;;;2.30;0.00;;;9.10;99.90;;;;;;4977983;28;20030;-74
2021/11/30 11:19:37;;;;;;;0.95;0.17;;;9.10;99.90;;;;;;4996224;28;20073;-74
2021/11/30 11:22:17;;;;;;;1.55;0.15;;;9.10;99.90;;;;;;4978165;28;20038;-74
2021/11/30 11:24:43;;;;;;;0.28;0.00;;;9.10;99.90;;;;;;4978352;28;20505;-74
2021/11/30 11:27:09;;;;;;;1.17;0.00;;;9.10;99.90;;;;;;4995892;28;20105;-74
2021/11/30 11:29:41;;;;;;;0.03;0.00;;;9.10;99.90;;;;;;4978595;28;20022;-74
2021/11/30 11:32:07;;;;;;;0.57;0.00;;;9.10;99.90;;;;;;4995516;28;20464;-74
2021/11/30 11:34:35;;;;;;;0.10;0.00;;;9.10;99.90;;;;;;4978164;28;20053;-74
2021/11/30 11:37:10;;;;;;;3.03;0.10;;;9.10;99.90;;;;;;4995704;28;20087;-74
2021/11/30 11:39:36;;;;;;;1.40;0.20;;;9.10;99.90;;;;;;4995945;28;20427;-75
2021/11/30 11:42:05;;;;;;;0.75;0.10;;;9.10;99.90;;;;;;4995655;28;20031;-73
2021/11/30 11:44:31;;;;;;;3.50;0.10;;;9.10;99.90;;;;;;4995160;28;20034;-74
2021/11/30 11:47:21;;;;;;;0.38;0.00;;;9.10;99.90;;;;;;4995109;28;20037;-75
2021/11/30 11:49:49;;;;;;;0.20;0.00;;;9.10;99.90;;;;;;4977138;28;20494;-74
2021/11/30 11:52:30;;;;;;;1.00;0.00;;;9.10;99.90;;;;;;4994743;28;20499;-74
2021/11/30 11:55:06;;;;;;;0.20;0.00;;;9.20;99.90;;;;;;4994872;28;20427;-74
2021/11/30 11:57:34;;;;;;;1.65;0.00;;;9.20;99.90;;;;;;4995029;28;20023;-74
2021/11/30 12:00:25;;;;;;;0.90;0.00;;;9.20;99.90;;;;;;4994832;28;20032;-74
2021/11/30 12:03:08;;;;;;;0.63;0.00;;;9.20;99.90;;;;;;4994827;28;20041;-75
2021/11/30 12:05:52;;;;;;;0.00;0.00;;;9.20;99.90;;;;;;4994995;28;20022;-74
2021/11/30 12:08:32;;;;;;;0.00;0.00;;;9.20;99.90;;;;;;4994655;28;20029;-75
2021/11/30 12:10:59;;;;;;;0.20;0.00;;;9.20;99.90;;;;;;4994932;28;20387;-74
2021/11/30 12:13:26;;;;;;;0.20;0.00;;;9.20;99.90;;;;;;4994473;28;20030;-74
2021/11/30 12:16:06;;;;;;;0.00;0.00;;;9.20;99.90;;;;;;4977259;28;20026;-74
2021/11/30 12:18:40;;;;;;;0.00;0.00;;;9.20;99.90;;;;;;4992832;28;20030;-74
2021/11/30 12:21:21;;;;;;;0.00;0.00;;;9.20;99.90;;;;;;4977006;28;20034;-74
2021/11/30 12:23:51;;;;;;;1.50;0.00;;;9.20;99.90;;;;;;4993580;28;20117;-75
2021/11/30 12:26:29;;;;;;;0.57;0.00;;;9.20;99.90;;;;;;4994689;28;20406;-75
2021/11/30 12:28:55;;;;;;;0.10;0.00;;;9.20;99.90;;;;;;4993812;28;20030;-75
2021/11/30 12:31:39;;;;;;;0.10;0.00;;;9.20;99.90;;;;;;4976760;28;20033;-75
2021/11/30 12:34:07;;;;;;;0.00;0.00;;;9.20;99.90;;;;;;4993919;28;20502;-75
2021/11/30 12:36:36;;;;;;;0.00;0.00;;;9.20;99.90;;;;;;4994383;28;20085;-74
2021/11/30 12:39:03;;;;;;;0.10;0.00;;;9.20;99.90;;;;;;4994455;28;20205;-74
2021/11/30 12:41:38;;;;;;;0.00;0.00;;;9.20;99.90;;;;;;4994389;28;20023;-75
2021/11/30 12:44:17;;;;;;;0.52;0.20;;;9.30;99.90;;;;;;4994462;28;20040;-75
2021/11/30 12:46:48;;;;;;;0.68;0.15;;;9.30;99.90;;;;;;4976062;28;20018;-76
2021/11/30 12:49:27;;;;;;;1.10;0.00;;;9.30;99.90;;;;;;4993605;28;20044;-75
2021/11/30 12:52:11;;;;;;;0.00;0.00;;;9.30;99.90;;;;;;4992377;28;20142;-74
2021/11/30 12:54:39;;;;;;;0.70;0.00;;;9.30;99.90;;;;;;4994547;28;20037;-75
2021/11/30 12:57:06;;;;;;;0.07;0.00;;;9.30;99.90;;;;;;4976480;28;20072;-75
2021/11/30 12:59:39;;;;;;;1.65;0.52;;;9.30;99.90;;;;;;4982439;28;20377;-75
2021/11/30 13:02:16;;;;;;;0.10;0.00;;;9.30;99.90;;;;;;4956524;28;20110;-76
2021/11/30 13:04:42;;;;;;;1.45;0.00;;;9.30;99.90;;;;;;4957522;28;20064;-76
2021/11/30 13:07:12;;;;;;;2.13;0.00;;;9.30;99.90;;;;;;4974594;28;20081;-74
2021/11/30 13:09:40;;;;;;;0.10;0.00;;;9.20;99.90;;;;;;4974999;28;20033;-76
2021/11/30 13:12:11;;;;;;;0.20;0.00;;;9.30;99.90;;;;;;4974779;28;20480;-75
2021/11/30 13:14:38;;;;;;;0.17;0.17;;;9.20;99.90;;;;;;4957446;28;20057;-74